sensor_id;sensor_type;location;lat;lon;timestamp;P1;durP1;ratioP1;P2;durP2;ratioP2
6537;SDS011;3302;52.508;13.454;2023-03-03T00:01:27;16.83;;;10.20;;
6537;SDS011;3302;52.508;13.454;2023-03-03T00:03:54;16.20;;;9.87;;
6537;SDS011;3302;52.508;13.454;2023-03-03T00:06:20;15.80;;;9.87;;
6537;SDS011;3302;52.508;13.454;2023-03-03T00:08:46;18.07;;;11.10;;
6537;SDS011;3302;52.508;13.454;2023-03-03T00:11:12;17.43;;;10.33;;
6537;SDS011;3302;52.508;13.454;2023-03-03T00:13:43;13.80;;;8.63;;
6537;SDS011;3302;52.508;13.454;2023-03-03T00:16:25;16.43;;;10.27;;
6537;SDS011;3302;52.508;13.454;2023-03-03T00:19:01;15.63;;;10.10;;
6537;SDS011;3302;52.508;13.454;2023-03-03T00:21:29;15.13;;;9.00;;
6537;SDS011;3302;52.508;13.454;2023-03-03T00:26:55;17.03;;;10.17;;
6537;SDS011;3302;52.508;13.454;2023-03-03T00:29:35;16.83;;;10.20;;
6537;SDS011;3302;52.508;13.454;2023-03-03T00:34:36;15.27;;;9.67;;
6537;SDS011;3302;52.508;13.454;2023-03-03T00:37:02;17.53;;;10.30;;
6537;SDS011;3302;52.508;13.454;2023-03-03T00:39:44;17.07;;;10.07;;
6537;SDS011;3302;52.508;13.454;2023-03-03T00:42:11;14.53;;;9.67;;
6537;SDS011;3302;52.508;13.454;2023-03-03T00:47:27;16.33;;;10.43;;
6537;SDS011;3302;52.508;13.454;2023-03-03T00:49:55;15.97;;;9.83;;
6537;SDS011;3302;52.508;13.454;2023-03-03T00:52:30;17.33;;;10.33;;
6537;SDS011;3302;52.508;13.454;2023-03-03T00:55:02;17.60;;;10.90;;
6537;SDS011;3302;52.508;13.454;2023-03-03T00:57:29;18.17;;;10.47;;
6537;SDS011;3302;52.508;13.454;2023-03-03T00:59:55;18.40;;;10.50;;
6537;SDS011;3302;52.508;13.454;2023-03-03T01:02:21;20.73;;;10.83;;
6537;SDS011;3302;52.508;13.454;2023-03-03T01:04:50;19.37;;;10.00;;
6537;SDS011;3302;52.508;13.454;2023-03-03T01:07:18;21.07;;;11.17;;
6537;SDS011;3302;52.508;13.454;2023-03-03T01:09:44;16.23;;;9.63;;
6537;SDS011;3302;52.508;13.454;2023-03-03T01:12:10;17.80;;;9.90;;
6537;SDS011;3302;52.508;13.454;2023-03-03T01:14:37;15.63;;;10.13;;
6537;SDS011;3302;52.508;13.454;2023-03-03T01:17:03;17.47;;;10.73;;
6537;SDS011;3302;52.508;13.454;2023-03-03T01:19:29;19.37;;;10.37;;
6537;SDS011;3302;52.508;13.454;2023-03-03T01:21:55;21.30;;;11.47;;
6537;SDS011;3302;52.508;13.454;2023-03-03T01:24:20;17.00;;;10.30;;
6537;SDS011;3302;52.508;13.454;2023-03-03T01:26:46;19.50;;;10.77;;
6537;SDS011;3302;52.508;13.454;2023-03-03T01:29:12;17.53;;;10.10;;
6537;SDS011;3302;52.508;13.454;2023-03-03T01:31:38;17.90;;;11.00;;
6537;SDS011;3302;52.508;13.454;2023-03-03T01:34:04;18.30;;;11.63;;
6537;SDS011;3302;52.508;13.454;2023-03-03T01:36:31;16.60;;;10.50;;
6537;SDS011;3302;52.508;13.454;2023-03-03T01:38:58;21.30;;;12.03;;
6537;SDS011;3302;52.508;13.454;2023-03-03T01:41:27;19.57;;;10.77;;
6537;SDS011;3302;52.508;13.454;2023-03-03T01:43:56;19.80;;;11.90;;
6537;SDS011;3302;52.508;13.454;2023-03-03T01:52:34;15.93;;;10.17;;
6537;SDS011;3302;52.508;13.454;2023-03-03T01:55:06;19.77;;;11.13;;
6537;SDS011;3302;52.508;13.454;2023-03-03T01:57:56;18.80;;;10.73;;
6537;SDS011;3302;52.508;13.454;2023-03-03T02:00:28;19.50;;;11.50;;
6537;SDS011;3302;52.508;13.454;2023-03-03T02:02:55;18.90;;;12.03;;
6537;SDS011;3302;52.508;13.454;2023-03-03T02:05:22;17.63;;;10.17;;
6537;SDS011;3302;52.508;13.454;2023-03-03T02:07:49;17.57;;;10.70;;
6537;SDS011;3302;52.508;13.454;2023-03-03T02:10:17;17.90;;;10.93;;
6537;SDS011;3302;52.508;13.454;2023-03-03T02:12:52;17.87;;;11.13;;
6537;SDS011;3302;52.508;13.454;2023-03-03T02:15:22;20.43;;;11.17;;
6537;SDS011;3302;52.508;13.454;2023-03-03T02:17:51;18.87;;;11.13;;
6537;SDS011;3302;52.508;13.454;2023-03-03T02:20:22;19.70;;;11.47;;
6537;SDS011;3302;52.508;13.454;2023-03-03T02:25:45;21.77;;;12.50;;
6537;SDS011;3302;52.508;13.454;2023-03-03T02:28:19;23.07;;;11.47;;
6537;SDS011;3302;52.508;13.454;2023-03-03T02:30:47;19.57;;;11.83;;
6537;SDS011;3302;52.508;13.454;2023-03-03T02:33:13;21.57;;;12.53;;
6537;SDS011;3302;52.508;13.454;2023-03-03T02:35:39;19.53;;;12.27;;
6537;SDS011;3302;52.508;13.454;2023-03-03T02:38:11;20.27;;;12.07;;
6537;SDS011;3302;52.508;13.454;2023-03-03T02:40:39;18.67;;;11.63;;
6537;SDS011;3302;52.508;13.454;2023-03-03T02:43:11;20.77;;;13.03;;
6537;SDS011;3302;52.508;13.454;2023-03-03T02:45:42;21.83;;;12.83;;
6537;SDS011;3302;52.508;13.454;2023-03-03T02:48:09;21.87;;;12.57;;
6537;SDS011;3302;52.508;13.454;2023-03-03T02:50:36;21.57;;;13.77;;
6537;SDS011;3302;52.508;13.454;2023-03-03T02:53:02;20.40;;;12.23;;
6537;SDS011;3302;52.508;13.454;2023-03-03T02:55:28;20.73;;;13.43;;
6537;SDS011;3302;52.508;13.454;2023-03-03T02:57:53;18.60;;;11.43;;
6537;SDS011;3302;52.508;13.454;2023-03-03T03:00:19;21.67;;;12.43;;
6537;SDS011;3302;52.508;13.454;2023-03-03T03:02:45;25.80;;;14.00;;
6537;SDS011;3302;52.508;13.454;2023-03-03T03:05:11;22.57;;;13.03;;
6537;SDS011;3302;52.508;13.454;2023-03-03T03:07:37;21.23;;;12.53;;
6537;SDS011;3302;52.508;13.454;2023-03-03T03:10:03;22.83;;;12.97;;
6537;SDS011;3302;52.508;13.454;2023-03-03T03:12:29;20.20;;;12.30;;
6537;SDS011;3302;52.508;13.454;2023-03-03T03:14:55;21.43;;;12.50;;
6537;SDS011;3302;52.508;13.454;2023-03-03T03:17:21;19.80;;;12.00;;
6537;SDS011;3302;52.508;13.454;2023-03-03T03:19:47;21.13;;;12.67;;
6537;SDS011;3302;52.508;13.454;2023-03-03T03:22:12;20.93;;;12.37;;
6537;SDS011;3302;52.508;13.454;2023-03-03T03:24:38;21.83;;;12.43;;
6537;SDS011;3302;52.508;13.454;2023-03-03T03:27:04;22.13;;;13.10;;
6537;SDS011;3302;52.508;13.454;2023-03-03T03:29:30;21.83;;;13.37;;
6537;SDS011;3302;52.508;13.454;2023-03-03T03:31:55;19.60;;;12.87;;
6537;SDS011;3302;52.508;13.454;2023-03-03T03:34:21;20.20;;;12.00;;
6537;SDS011;3302;52.508;13.454;2023-03-03T03:36:47;18.50;;;11.30;;
6537;SDS011;3302;52.508;13.454;2023-03-03T03:39:13;25.00;;;12.50;;
6537;SDS011;3302;52.508;13.454;2023-03-03T03:41:38;21.33;;;12.63;;
6537;SDS011;3302;52.508;13.454;2023-03-03T03:44:05;20.37;;;12.30;;
6537;SDS011;3302;52.508;13.454;2023-03-03T03:46:31;22.43;;;12.43;;
6537;SDS011;3302;52.508;13.454;2023-03-03T03:48:56;20.97;;;12.47;;
6537;SDS011;3302;52.508;13.454;2023-03-03T03:51:22;19.97;;;11.47;;
6537;SDS011;3302;52.508;13.454;2023-03-03T03:53:48;23.07;;;12.37;;
6537;SDS011;3302;52.508;13.454;2023-03-03T03:56:13;20.97;;;12.47;;
6537;SDS011;3302;52.508;13.454;2023-03-03T03:58:41;19.50;;;11.80;;
6537;SDS011;3302;52.508;13.454;2023-03-03T04:01:07;20.57;;;12.70;;
6537;SDS011;3302;52.508;13.454;2023-03-03T04:03:33;20.73;;;11.97;;
6537;SDS011;3302;52.508;13.454;2023-03-03T04:05:59;22.17;;;12.63;;
6537;SDS011;3302;52.508;13.454;2023-03-03T04:08:25;22.97;;;11.73;;
6537;SDS011;3302;52.508;13.454;2023-03-03T04:10:51;21.00;;;11.97;;
6537;SDS011;3302;52.508;13.454;2023-03-03T04:13:17;20.37;;;10.57;;
6537;SDS011;3302;52.508;13.454;2023-03-03T04:15:42;21.03;;;12.33;;
6537;SDS011;3302;52.508;13.454;2023-03-03T04:18:08;20.53;;;11.40;;
6537;SDS011;3302;52.508;13.454;2023-03-03T04:20:34;20.30;;;12.47;;
6537;SDS011;3302;52.508;13.454;2023-03-03T04:23:00;19.00;;;10.73;;
6537;SDS011;3302;52.508;13.454;2023-03-03T04:25:25;19.03;;;10.57;;
6537;SDS011;3302;52.508;13.454;2023-03-03T04:27:51;22.87;;;12.17;;
6537;SDS011;3302;52.508;13.454;2023-03-03T04:30:17;22.53;;;12.97;;
6537;SDS011;3302;52.508;13.454;2023-03-03T04:32:43;23.23;;;12.70;;
6537;SDS011;3302;52.508;13.454;2023-03-03T04:35:10;24.43;;;13.63;;
6537;SDS011;3302;52.508;13.454;2023-03-03T04:37:36;23.00;;;13.93;;
6537;SDS011;3302;52.508;13.454;2023-03-03T04:40:06;24.07;;;13.37;;
6537;SDS011;3302;52.508;13.454;2023-03-03T04:42:33;26.93;;;14.67;;
6537;SDS011;3302;52.508;13.454;2023-03-03T04:44:59;24.67;;;13.23;;
6537;SDS011;3302;52.508;13.454;2023-03-03T04:47:25;27.87;;;14.77;;
6537;SDS011;3302;52.508;13.454;2023-03-03T04:49:51;25.83;;;13.90;;
6537;SDS011;3302;52.508;13.454;2023-03-03T04:52:17;26.73;;;14.60;;
6537;SDS011;3302;52.508;13.454;2023-03-03T04:54:42;26.43;;;14.10;;
6537;SDS011;3302;52.508;13.454;2023-03-03T04:57:08;25.77;;;13.67;;
6537;SDS011;3302;52.508;13.454;2023-03-03T04:59:34;25.13;;;13.77;;
6537;SDS011;3302;52.508;13.454;2023-03-03T05:02:01;24.27;;;13.30;;
6537;SDS011;3302;52.508;13.454;2023-03-03T05:04:28;23.07;;;13.60;;
6537;SDS011;3302;52.508;13.454;2023-03-03T05:06:54;22.73;;;12.77;;
6537;SDS011;3302;52.508;13.454;2023-03-03T05:09:21;23.00;;;12.43;;
6537;SDS011;3302;52.508;13.454;2023-03-03T05:11:48;22.43;;;12.83;;
6537;SDS011;3302;52.508;13.454;2023-03-03T05:14:13;22.47;;;12.20;;
6537;SDS011;3302;52.508;13.454;2023-03-03T05:16:39;23.90;;;13.10;;
6537;SDS011;3302;52.508;13.454;2023-03-03T05:19:05;24.03;;;12.87;;
6537;SDS011;3302;52.508;13.454;2023-03-03T05:21:31;23.67;;;12.90;;
6537;SDS011;3302;52.508;13.454;2023-03-03T05:23:56;27.40;;;13.20;;
6537;SDS011;3302;52.508;13.454;2023-03-03T05:26:22;24.13;;;12.57;;
6537;SDS011;3302;52.508;13.454;2023-03-03T05:28:48;25.57;;;13.10;;
6537;SDS011;3302;52.508;13.454;2023-03-03T05:31:14;24.20;;;12.90;;
6537;SDS011;3302;52.508;13.454;2023-03-03T05:33:40;26.03;;;13.87;;
6537;SDS011;3302;52.508;13.454;2023-03-03T05:36:05;24.47;;;13.47;;
6537;SDS011;3302;52.508;13.454;2023-03-03T05:38:32;30.03;;;14.67;;
6537;SDS011;3302;52.508;13.454;2023-03-03T05:40:57;26.87;;;14.67;;
6537;SDS011;3302;52.508;13.454;2023-03-03T05:43:23;30.63;;;15.13;;
6537;SDS011;3302;52.508;13.454;2023-03-03T05:45:55;28.10;;;13.20;;
6537;SDS011;3302;52.508;13.454;2023-03-03T05:48:22;26.80;;;13.97;;
6537;SDS011;3302;52.508;13.454;2023-03-03T05:50:48;32.10;;;15.07;;
6537;SDS011;3302;52.508;13.454;2023-03-03T05:53:14;28.57;;;15.40;;
6537;SDS011;3302;52.508;13.454;2023-03-03T05:55:40;30.50;;;15.43;;
6537;SDS011;3302;52.508;13.454;2023-03-03T05:58:06;32.43;;;16.23;;
6537;SDS011;3302;52.508;13.454;2023-03-03T06:00:31;27.50;;;15.10;;
6537;SDS011;3302;52.508;13.454;2023-03-03T06:02:57;34.77;;;17.13;;
6537;SDS011;3302;52.508;13.454;2023-03-03T06:05:23;29.63;;;15.97;;
6537;SDS011;3302;52.508;13.454;2023-03-03T06:07:49;33.23;;;17.03;;
6537;SDS011;3302;52.508;13.454;2023-03-03T06:10:15;36.83;;;17.97;;
6537;SDS011;3302;52.508;13.454;2023-03-03T06:12:41;31.10;;;15.87;;
6537;SDS011;3302;52.508;13.454;2023-03-03T06:15:07;33.17;;;16.77;;
6537;SDS011;3302;52.508;13.454;2023-03-03T06:17:34;34.97;;;16.63;;
6537;SDS011;3302;52.508;13.454;2023-03-03T06:20:00;28.50;;;14.90;;
6537;SDS011;3302;52.508;13.454;2023-03-03T06:22:27;26.97;;;14.13;;
6537;SDS011;3302;52.508;13.454;2023-03-03T06:24:53;31.37;;;15.23;;
6537;SDS011;3302;52.508;13.454;2023-03-03T06:27:18;25.03;;;13.30;;
6537;SDS011;3302;52.508;13.454;2023-03-03T06:29:44;28.47;;;14.10;;
6537;SDS011;3302;52.508;13.454;2023-03-03T06:32:10;28.30;;;14.27;;
6537;SDS011;3302;52.508;13.454;2023-03-03T06:34:38;25.23;;;14.77;;
6537;SDS011;3302;52.508;13.454;2023-03-03T06:37:04;26.17;;;13.77;;
6537;SDS011;3302;52.508;13.454;2023-03-03T06:39:31;25.80;;;14.60;;
6537;SDS011;3302;52.508;13.454;2023-03-03T06:41:56;28.37;;;14.27;;
6537;SDS011;3302;52.508;13.454;2023-03-03T06:44:22;23.80;;;13.93;;
6537;SDS011;3302;52.508;13.454;2023-03-03T06:46:48;29.13;;;14.70;;
6537;SDS011;3302;52.508;13.454;2023-03-03T06:49:14;27.00;;;14.90;;
6537;SDS011;3302;52.508;13.454;2023-03-03T06:51:40;30.40;;;14.83;;
6537;SDS011;3302;52.508;13.454;2023-03-03T06:54:10;27.53;;;15.67;;
6537;SDS011;3302;52.508;13.454;2023-03-03T06:56:38;25.73;;;13.40;;
6537;SDS011;3302;52.508;13.454;2023-03-03T06:59:09;25.93;;;14.40;;
6537;SDS011;3302;52.508;13.454;2023-03-03T07:01:43;28.30;;;14.67;;
6537;SDS011;3302;52.508;13.454;2023-03-03T07:04:21;24.87;;;13.33;;
6537;SDS011;3302;52.508;13.454;2023-03-03T07:06:54;26.03;;;14.57;;
6537;SDS011;3302;52.508;13.454;2023-03-03T07:09:21;28.50;;;15.27;;
6537;SDS011;3302;52.508;13.454;2023-03-03T07:11:50;30.80;;;16.17;;
6537;SDS011;3302;52.508;13.454;2023-03-03T07:14:17;27.13;;;15.60;;
6537;SDS011;3302;52.508;13.454;2023-03-03T07:16:45;28.93;;;14.57;;
6537;SDS011;3302;52.508;13.454;2023-03-03T07:19:20;31.73;;;17.03;;
6537;SDS011;3302;52.508;13.454;2023-03-03T07:21:53;28.80;;;16.33;;
6537;SDS011;3302;52.508;13.454;2023-03-03T07:24:29;38.97;;;17.10;;
6537;SDS011;3302;52.508;13.454;2023-03-03T07:26:59;32.97;;;17.57;;
6537;SDS011;3302;52.508;13.454;2023-03-03T07:29:32;34.57;;;17.87;;
6537;SDS011;3302;52.508;13.454;2023-03-03T07:31:58;32.97;;;16.97;;
6537;SDS011;3302;52.508;13.454;2023-03-03T07:34:29;32.80;;;16.87;;
6537;SDS011;3302;52.508;13.454;2023-03-03T07:37:13;30.77;;;16.60;;
6537;SDS011;3302;52.508;13.454;2023-03-03T07:39:45;34.30;;;17.40;;
6537;SDS011;3302;52.508;13.454;2023-03-03T07:44:59;34.47;;;17.80;;
6537;SDS011;3302;52.508;13.454;2023-03-03T07:47:26;31.00;;;16.93;;
6537;SDS011;3302;52.508;13.454;2023-03-03T07:49:54;34.87;;;16.53;;
6537;SDS011;3302;52.508;13.454;2023-03-03T07:52:26;31.30;;;16.33;;
6537;SDS011;3302;52.508;13.454;2023-03-03T07:54:52;33.20;;;15.83;;
6537;SDS011;3302;52.508;13.454;2023-03-03T07:59:52;32.40;;;15.30;;
6537;SDS011;3302;52.508;13.454;2023-03-03T08:02:37;28.63;;;13.53;;
6537;SDS011;3302;52.508;13.454;2023-03-03T08:05:17;35.60;;;16.47;;
6537;SDS011;3302;52.508;13.454;2023-03-03T08:07:51;33.67;;;15.80;;
6537;SDS011;3302;52.508;13.454;2023-03-03T08:10:26;31.63;;;15.40;;
6537;SDS011;3302;52.508;13.454;2023-03-03T08:12:59;35.67;;;16.93;;
6537;SDS011;3302;52.508;13.454;2023-03-03T08:15:33;31.03;;;15.73;;
6537;SDS011;3302;52.508;13.454;2023-03-03T08:18:01;30.27;;;15.63;;
6537;SDS011;3302;52.508;13.454;2023-03-03T08:20:45;33.53;;;15.97;;
6537;SDS011;3302;52.508;13.454;2023-03-03T08:23:13;30.43;;;15.47;;
6537;SDS011;3302;52.508;13.454;2023-03-03T08:25:40;32.63;;;15.20;;
6537;SDS011;3302;52.508;13.454;2023-03-03T08:28:06;32.77;;;16.93;;
6537;SDS011;3302;52.508;13.454;2023-03-03T08:30:33;35.80;;;16.07;;
6537;SDS011;3302;52.508;13.454;2023-03-03T08:32:59;33.27;;;17.47;;
6537;SDS011;3302;52.508;13.454;2023-03-03T08:35:25;31.60;;;15.80;;
6537;SDS011;3302;52.508;13.454;2023-03-03T08:37:51;29.87;;;14.37;;
6537;SDS011;3302;52.508;13.454;2023-03-03T08:40:17;26.63;;;13.97;;
6537;SDS011;3302;52.508;13.454;2023-03-03T08:42:43;32.27;;;15.27;;
6537;SDS011;3302;52.508;13.454;2023-03-03T08:45:10;32.93;;;16.23;;
6537;SDS011;3302;52.508;13.454;2023-03-03T08:47:36;31.27;;;15.77;;
6537;SDS011;3302;52.508;13.454;2023-03-03T08:50:03;32.13;;;16.00;;
6537;SDS011;3302;52.508;13.454;2023-03-03T08:52:29;29.80;;;14.67;;
6537;SDS011;3302;52.508;13.454;2023-03-03T08:54:55;24.20;;;12.53;;
6537;SDS011;3302;52.508;13.454;2023-03-03T08:57:21;25.20;;;11.33;;
6537;SDS011;3302;52.508;13.454;2023-03-03T08:59:47;25.67;;;12.57;;
6537;SDS011;3302;52.508;13.454;2023-03-03T09:02:13;27.13;;;12.57;;
6537;SDS011;3302;52.508;13.454;2023-03-03T09:04:39;28.70;;;13.87;;
6537;SDS011;3302;52.508;13.454;2023-03-03T09:07:04;28.37;;;14.10;;
6537;SDS011;3302;52.508;13.454;2023-03-03T09:09:30;25.97;;;13.50;;
6537;SDS011;3302;52.508;13.454;2023-03-03T09:11:57;28.13;;;14.70;;
6537;SDS011;3302;52.508;13.454;2023-03-03T09:14:27;31.70;;;15.97;;
6537;SDS011;3302;52.508;13.454;2023-03-03T09:16:54;27.07;;;14.27;;
6537;SDS011;3302;52.508;13.454;2023-03-03T09:21:53;26.67;;;13.87;;
6537;SDS011;3302;52.508;13.454;2023-03-03T09:24:23;32.93;;;16.07;;
6537;SDS011;3302;52.508;13.454;2023-03-03T09:26:53;29.80;;;15.10;;
6537;SDS011;3302;52.508;13.454;2023-03-03T09:29:29;26.93;;;14.87;;
6537;SDS011;3302;52.508;13.454;2023-03-03T09:35:00;26.43;;;14.13;;
6537;SDS011;3302;52.508;13.454;2023-03-03T09:37:59;26.30;;;14.07;;
6537;SDS011;3302;52.508;13.454;2023-03-03T09:48:39;32.27;;;15.27;;
6537;SDS011;3302;52.508;13.454;2023-03-03T09:56:55;26.40;;;14.77;;
6537;SDS011;3302;52.508;13.454;2023-03-03T10:02:30;25.77;;;15.70;;
6537;SDS011;3302;52.508;13.454;2023-03-03T10:16:28;28.07;;;17.07;;
6537;SDS011;3302;52.508;13.454;2023-03-03T10:27:32;29.03;;;17.00;;
6537;SDS011;3302;52.508;13.454;2023-03-03T10:50:10;25.30;;;15.83;;
6537;SDS011;3302;52.508;13.454;2023-03-03T10:52:48;27.40;;;15.13;;
6537;SDS011;3302;52.508;13.454;2023-03-03T10:56:06;24.70;;;15.30;;
6537;SDS011;3302;52.508;13.454;2023-03-03T10:58:57;24.47;;;15.50;;
6537;SDS011;3302;52.508;13.454;2023-03-03T11:01:34;22.93;;;14.77;;
6537;SDS011;3302;52.508;13.454;2023-03-03T11:04:24;28.47;;;16.47;;
6537;SDS011;3302;52.508;13.454;2023-03-03T11:20:33;28.97;;;14.27;;
6537;SDS011;3302;52.508;13.454;2023-03-03T11:23:11;24.33;;;13.70;;
6537;SDS011;3302;52.508;13.454;2023-03-03T11:26:07;23.57;;;14.70;;
6537;SDS011;3302;52.508;13.454;2023-03-03T11:31:20;22.50;;;13.60;;
6537;SDS011;3302;52.508;13.454;2023-03-03T11:36:37;23.77;;;13.87;;
6537;SDS011;3302;52.508;13.454;2023-03-03T11:39:09;23.47;;;13.97;;
6537;SDS011;3302;52.508;13.454;2023-03-03T11:41:38;23.47;;;13.07;;
6537;SDS011;3302;52.508;13.454;2023-03-03T11:47:05;22.60;;;13.63;;
6537;SDS011;3302;52.508;13.454;2023-03-03T11:52:48;28.17;;;15.67;;
6537;SDS011;3302;52.508;13.454;2023-03-03T11:55:46;30.90;;;18.00;;
6537;SDS011;3302;52.508;13.454;2023-03-03T12:03:57;34.13;;;18.77;;
6537;SDS011;3302;52.508;13.454;2023-03-03T12:06:37;30.53;;;18.23;;
6537;SDS011;3302;52.508;13.454;2023-03-03T12:09:26;27.30;;;16.77;;
6537;SDS011;3302;52.508;13.454;2023-03-03T12:20:37;30.13;;;16.80;;
6537;SDS011;3302;52.508;13.454;2023-03-03T12:23:45;38.53;;;21.90;;
6537;SDS011;3302;52.508;13.454;2023-03-03T12:26:32;37.07;;;21.27;;
6537;SDS011;3302;52.508;13.454;2023-03-03T12:32:25;32.33;;;18.40;;
6537;SDS011;3302;52.508;13.454;2023-03-03T12:35:12;25.10;;;15.40;;
6537;SDS011;3302;52.508;13.454;2023-03-03T12:40:33;20.83;;;13.30;;
6537;SDS011;3302;52.508;13.454;2023-03-03T12:48:49;21.37;;;12.43;;
6537;SDS011;3302;52.508;13.454;2023-03-03T12:51:21;23.13;;;14.07;;
6537;SDS011;3302;52.508;13.454;2023-03-03T12:54:20;29.13;;;16.57;;
6537;SDS011;3302;52.508;13.454;2023-03-03T13:00:25;24.73;;;14.77;;
6537;SDS011;3302;52.508;13.454;2023-03-03T13:03:04;29.33;;;17.83;;
6537;SDS011;3302;52.508;13.454;2023-03-03T13:06:06;28.23;;;17.73;;
6537;SDS011;3302;52.508;13.454;2023-03-03T13:11:59;32.10;;;18.23;;
6537;SDS011;3302;52.508;13.454;2023-03-03T13:14:45;33.80;;;19.70;;
6537;SDS011;3302;52.508;13.454;2023-03-03T13:17:30;35.17;;;20.60;;
6537;SDS011;3302;52.508;13.454;2023-03-03T13:20:07;35.03;;;20.80;;
6537;SDS011;3302;52.508;13.454;2023-03-03T13:22:45;31.70;;;18.43;;
6537;SDS011;3302;52.508;13.454;2023-03-03T13:25:30;36.47;;;19.97;;
6537;SDS011;3302;52.508;13.454;2023-03-03T13:31:20;33.57;;;19.37;;
6537;SDS011;3302;52.508;13.454;2023-03-03T13:33:54;31.30;;;17.17;;
6537;SDS011;3302;52.508;13.454;2023-03-03T13:36:24;32.57;;;19.27;;
6537;SDS011;3302;52.508;13.454;2023-03-03T13:39:29;26.70;;;15.87;;
6537;SDS011;3302;52.508;13.454;2023-03-03T13:41:55;28.10;;;15.53;;
6537;SDS011;3302;52.508;13.454;2023-03-03T13:47:10;26.40;;;15.97;;
6537;SDS011;3302;52.508;13.454;2023-03-03T13:49:54;26.57;;;16.33;;
6537;SDS011;3302;52.508;13.454;2023-03-03T13:52:27;32.23;;;18.60;;
6537;SDS011;3302;52.508;13.454;2023-03-03T13:55:04;27.60;;;17.03;;
6537;SDS011;3302;52.508;13.454;2023-03-03T14:00:52;23.40;;;14.80;;
6537;SDS011;3302;52.508;13.454;2023-03-03T14:06:31;26.77;;;14.87;;
6537;SDS011;3302;52.508;13.454;2023-03-03T14:12:03;22.13;;;14.53;;
6537;SDS011;3302;52.508;13.454;2023-03-03T14:20:41;30.43;;;16.83;;
6537;SDS011;3302;52.508;13.454;2023-03-03T14:28:29;31.13;;;18.97;;
6537;SDS011;3302;52.508;13.454;2023-03-03T14:31:14;31.73;;;19.10;;
6537;SDS011;3302;52.508;13.454;2023-03-03T14:36:56;28.90;;;17.53;;
6537;SDS011;3302;52.508;13.454;2023-03-03T14:39:44;28.13;;;16.00;;
6537;SDS011;3302;52.508;13.454;2023-03-03T14:45:20;22.40;;;13.60;;
6537;SDS011;3302;52.508;13.454;2023-03-03T14:47:55;21.80;;;15.07;;
6537;SDS011;3302;52.508;13.454;2023-03-03T14:50:29;22.17;;;14.77;;
6537;SDS011;3302;52.508;13.454;2023-03-03T14:55:46;20.77;;;13.03;;
6537;SDS011;3302;52.508;13.454;2023-03-03T14:58:28;20.53;;;13.73;;
6537;SDS011;3302;52.508;13.454;2023-03-03T15:03:43;20.07;;;14.07;;
6537;SDS011;3302;52.508;13.454;2023-03-03T15:06:12;23.87;;;14.50;;
6537;SDS011;3302;52.508;13.454;2023-03-03T15:11:50;22.93;;;13.50;;
6537;SDS011;3302;52.508;13.454;2023-03-03T15:14:19;20.43;;;14.10;;
6537;SDS011;3302;52.508;13.454;2023-03-03T15:16:51;24.00;;;15.23;;
6537;SDS011;3302;52.508;13.454;2023-03-03T15:22:00;24.77;;;15.90;;
6537;SDS011;3302;52.508;13.454;2023-03-03T15:24:39;20.60;;;13.40;;
6537;SDS011;3302;52.508;13.454;2023-03-03T15:27:34;19.10;;;11.93;;
6537;SDS011;3302;52.508;13.454;2023-03-03T15:33:12;15.43;;;9.87;;
6537;SDS011;3302;52.508;13.454;2023-03-03T15:35:50;14.13;;;9.03;;
6537;SDS011;3302;52.508;13.454;2023-03-03T15:38:24;15.63;;;9.70;;
6537;SDS011;3302;52.508;13.454;2023-03-03T15:43:33;15.37;;;9.07;;
6537;SDS011;3302;52.508;13.454;2023-03-03T15:55:31;16.73;;;9.47;;
6537;SDS011;3302;52.508;13.454;2023-03-03T16:03:45;15.47;;;9.27;;
6537;SDS011;3302;52.508;13.454;2023-03-03T16:07:00;15.27;;;9.90;;
6537;SDS011;3302;52.508;13.454;2023-03-03T16:09:20;16.67;;;9.50;;
6537;SDS011;3302;52.508;13.454;2023-03-03T16:11:58;12.77;;;8.70;;
6537;SDS011;3302;52.508;13.454;2023-03-03T16:20:06;13.57;;;8.70;;
6537;SDS011;3302;52.508;13.454;2023-03-03T16:30:31;15.90;;;9.43;;
6537;SDS011;3302;52.508;13.454;2023-03-03T16:33:17;15.97;;;9.90;;
6537;SDS011;3302;52.508;13.454;2023-03-03T16:38:42;15.03;;;9.33;;
6537;SDS011;3302;52.508;13.454;2023-03-03T16:41:14;14.47;;;9.30;;
6537;SDS011;3302;52.508;13.454;2023-03-03T16:43:56;16.63;;;10.23;;
6537;SDS011;3302;52.508;13.454;2023-03-03T16:46:33;14.83;;;8.97;;
6537;SDS011;3302;52.508;13.454;2023-03-03T16:49:12;18.83;;;10.83;;
6537;SDS011;3302;52.508;13.454;2023-03-03T17:10:38;17.03;;;10.70;;
6537;SDS011;3302;52.508;13.454;2023-03-03T17:13:27;16.47;;;9.47;;
6537;SDS011;3302;52.508;13.454;2023-03-03T17:16:30;15.90;;;9.73;;
6537;SDS011;3302;52.508;13.454;2023-03-03T17:30:13;15.17;;;9.50;;
6537;SDS011;3302;52.508;13.454;2023-03-03T17:33:02;14.97;;;10.27;;
6537;SDS011;3302;52.508;13.454;2023-03-03T17:41:06;14.73;;;10.10;;
6537;SDS011;3302;52.508;13.454;2023-03-03T17:46:43;16.17;;;10.03;;
6537;SDS011;3302;52.508;13.454;2023-03-03T17:51:54;17.80;;;11.70;;
6537;SDS011;3302;52.508;13.454;2023-03-03T17:54:25;16.50;;;10.73;;
6537;SDS011;3302;52.508;13.454;2023-03-03T18:00:22;17.47;;;10.63;;
6537;SDS011;3302;52.508;13.454;2023-03-03T18:11:46;22.17;;;12.60;;
6537;SDS011;3302;52.508;13.454;2023-03-03T18:17:32;20.53;;;13.40;;
6537;SDS011;3302;52.508;13.454;2023-03-03T18:22:54;17.93;;;11.30;;
6537;SDS011;3302;52.508;13.454;2023-03-03T18:25:21;19.00;;;10.60;;
6537;SDS011;3302;52.508;13.454;2023-03-03T18:30:27;15.73;;;11.00;;
6537;SDS011;3302;52.508;13.454;2023-03-03T18:43:40;18.27;;;10.97;;
6537;SDS011;3302;52.508;13.454;2023-03-03T18:51:45;17.50;;;10.60;;
6537;SDS011;3302;52.508;13.454;2023-03-03T18:54:06;16.77;;;10.70;;
6537;SDS011;3302;52.508;13.454;2023-03-03T19:04:37;14.53;;;10.70;;
6537;SDS011;3302;52.508;13.454;2023-03-03T19:07:19;17.27;;;11.23;;
6537;SDS011;3302;52.508;13.454;2023-03-03T19:09:55;16.70;;;10.27;;
6537;SDS011;3302;52.508;13.454;2023-03-03T19:12:41;15.40;;;10.20;;
6537;SDS011;3302;52.508;13.454;2023-03-03T19:15:54;15.90;;;10.03;;
6537;SDS011;3302;52.508;13.454;2023-03-03T19:20:56;16.00;;;10.60;;
6537;SDS011;3302;52.508;13.454;2023-03-03T19:23:49;16.10;;;10.37;;
6537;SDS011;3302;52.508;13.454;2023-03-03T19:37:39;17.03;;;10.27;;
6537;SDS011;3302;52.508;13.454;2023-03-03T19:40:30;18.73;;;11.30;;
6537;SDS011;3302;52.508;13.454;2023-03-03T19:43:30;17.70;;;10.97;;
6537;SDS011;3302;52.508;13.454;2023-03-03T19:49:19;16.40;;;10.17;;
6537;SDS011;3302;52.508;13.454;2023-03-03T19:57:37;16.47;;;10.03;;
6537;SDS011;3302;52.508;13.454;2023-03-03T20:16:40;19.70;;;11.47;;
6537;SDS011;3302;52.508;13.454;2023-03-03T20:27:54;15.87;;;10.13;;
6537;SDS011;3302;52.508;13.454;2023-03-03T20:33:36;17.20;;;10.77;;
6537;SDS011;3302;52.508;13.454;2023-03-03T20:47:23;15.23;;;8.80;;
6537;SDS011;3302;52.508;13.454;2023-03-03T20:50:08;14.43;;;8.73;;
6537;SDS011;3302;52.508;13.454;2023-03-03T20:58:44;12.77;;;7.23;;
6537;SDS011;3302;52.508;13.454;2023-03-03T21:01:34;10.67;;;7.10;;
6537;SDS011;3302;52.508;13.454;2023-03-03T21:04:15;11.37;;;7.60;;
6537;SDS011;3302;52.508;13.454;2023-03-03T21:06:46;13.23;;;8.37;;
6537;SDS011;3302;52.508;13.454;2023-03-03T21:11:58;13.67;;;8.27;;
6537;SDS011;3302;52.508;13.454;2023-03-03T21:14:30;15.63;;;8.93;;
6537;SDS011;3302;52.508;13.454;2023-03-03T21:16:58;14.43;;;8.60;;
6537;SDS011;3302;52.508;13.454;2023-03-03T21:19:30;14.17;;;7.53;;
6537;SDS011;3302;52.508;13.454;2023-03-03T21:21:58;13.00;;;7.90;;
6537;SDS011;3302;52.508;13.454;2023-03-03T21:25:10;11.90;;;7.60;;